createdAt,value
2022-09-16T00:00:18.675Z,1.65
2022-09-16T00:02:44.988Z,1.77
2022-09-16T00:05:11.367Z,1.23
2022-09-16T00:07:37.698Z,1.60
2022-09-16T00:10:04.979Z,1.80
2022-09-16T00:12:31.343Z,1.40
2022-09-16T00:14:57.776Z,2.28
2022-09-16T00:17:24.336Z,1.60
2022-09-16T00:19:50.862Z,1.52
2022-09-16T00:22:17.826Z,1.70
2022-09-16T00:24:44.728Z,1.88
2022-09-16T00:27:11.425Z,1.30
2022-09-16T00:29:37.722Z,1.50
2022-09-16T00:32:05.434Z,1.45
2022-09-16T00:34:31.822Z,1.83
2022-09-16T00:36:58.211Z,1.55
2022-09-16T00:39:24.579Z,1.40
2022-09-16T00:41:51.200Z,1.50
2022-09-16T00:44:51.356Z,1.90
2022-09-16T00:47:32.531Z,1.55
2022-09-16T00:50:09.175Z,1.65
2022-09-16T00:52:35.931Z,1.92
2022-09-16T00:55:07.669Z,1.67
2022-09-16T00:57:34.656Z,1.30
2022-09-16T01:00:02.094Z,1.38
2022-09-16T01:02:28.645Z,1.83
2022-09-16T01:05:05.835Z,1.40
2022-09-16T01:07:40.297Z,1.40
2022-09-16T01:10:07.099Z,1.55
2022-09-16T01:12:33.866Z,1.55
2022-09-16T01:15:00.850Z,1.45
2022-09-16T01:17:37.283Z,1.20
2022-09-16T01:20:14.271Z,1.40
2022-09-16T01:23:02.070Z,1.85
2022-09-16T01:25:59.929Z,1.65
2022-09-16T01:29:00.088Z,1.20
2022-09-16T01:31:52.460Z,1.50
2022-09-16T01:34:39.868Z,1.50
2022-09-16T01:37:43.000Z,1.25
2022-09-16T01:40:28.900Z,1.30
2022-09-16T01:43:07.411Z,1.63
2022-09-16T01:45:40.641Z,1.48
2022-09-16T01:48:06.838Z,1.35
2022-09-16T01:50:39.322Z,1.58
2022-09-16T01:53:19.368Z,1.33
2022-09-16T01:55:51.226Z,1.40
2022-09-16T01:58:23.466Z,1.50
2022-09-16T02:00:53.547Z,1.17
2022-09-16T02:03:24.028Z,1.30
2022-09-16T02:05:54.467Z,1.20
2022-09-16T02:08:39.802Z,1.40
2022-09-16T02:11:09.084Z,1.35
2022-09-16T02:13:38.822Z,1.20
2022-09-16T02:16:10.430Z,1.27
2022-09-16T02:18:40.547Z,1.20
2022-09-16T02:21:11.443Z,1.15
2022-09-16T02:23:41.871Z,1.30
2022-09-16T02:26:10.178Z,1.55
2022-09-16T02:28:39.658Z,1.73
2022-09-16T02:31:07.729Z,1.40
2022-09-16T02:33:40.990Z,1.52
2022-09-16T02:36:08.838Z,1.23
2022-09-16T02:38:40.578Z,1.35
2022-09-16T02:41:09.737Z,1.40
2022-09-16T02:43:36.718Z,1.60
2022-09-16T02:46:15.906Z,1.27
2022-09-16T02:48:51.418Z,1.63
2022-09-16T02:51:32.754Z,1.40
2022-09-16T02:54:14.186Z,1.20
2022-09-16T02:56:41.767Z,1.70
2022-09-16T02:59:10.626Z,1.45
2022-09-16T03:01:43.927Z,0.98
2022-09-16T03:04:12.109Z,1.35
2022-09-16T03:06:39.137Z,1.58
2022-09-16T03:09:08.642Z,1.30
2022-09-16T03:12:06.363Z,1.08
2022-09-16T03:14:44.798Z,1.30
2022-09-16T03:17:24.145Z,1.38
2022-09-16T03:20:18.999Z,1.73
2022-09-16T03:22:50.105Z,1.08
2022-09-16T03:25:53.051Z,1.23
2022-09-16T03:28:24.057Z,2.13
2022-09-16T03:31:07.637Z,1.52
2022-09-16T03:33:39.645Z,1.35
2022-09-16T03:36:08.887Z,1.23
2022-09-16T03:38:36.466Z,1.38
2022-09-16T03:41:04.365Z,1.30
2022-09-16T03:43:30.708Z,1.65
2022-09-16T03:45:57.144Z,1.42
2022-09-16T03:48:23.615Z,0.80
2022-09-16T03:50:49.997Z,1.60
2022-09-16T03:53:16.468Z,1.50
2022-09-16T03:55:42.829Z,1.40
2022-09-16T03:58:09.166Z,1.52
2022-09-16T04:00:35.489Z,1.45
2022-09-16T04:03:01.900Z,1.50
2022-09-16T04:05:28.379Z,1.73
2022-09-16T04:07:54.684Z,1.80
2022-09-16T04:10:21.022Z,1.48
2022-09-16T04:12:47.354Z,2.03
2022-09-16T04:15:13.785Z,1.50
2022-09-16T04:17:40.134Z,1.55
2022-09-16T04:20:08.194Z,1.30
2022-09-16T04:22:34.945Z,1.70
2022-09-16T04:25:01.313Z,1.40
2022-09-16T04:27:27.655Z,1.77
2022-09-16T04:29:53.982Z,1.40
2022-09-16T04:32:20.305Z,1.55
2022-09-16T04:34:46.696Z,1.15
2022-09-16T04:37:12.990Z,1.75
2022-09-16T04:39:39.288Z,1.23
2022-09-16T04:42:06.103Z,1.50
2022-09-16T04:44:32.430Z,1.08
2022-09-16T04:46:58.730Z,1.50
2022-09-16T04:49:25.132Z,1.20
2022-09-16T04:51:52.059Z,1.33
2022-09-16T04:54:18.466Z,1.70
2022-09-16T04:56:44.830Z,1.42
2022-09-16T04:59:11.156Z,1.40
2022-09-16T05:01:39.234Z,1.40
2022-09-16T05:04:07.602Z,1.33
2022-09-16T05:06:37.442Z,1.33
2022-09-16T05:09:04.225Z,1.75
2022-09-16T05:11:36.960Z,1.88
2022-09-16T05:14:05.233Z,1.42
2022-09-16T05:16:32.729Z,1.70
2022-09-16T05:18:59.985Z,1.40
2022-09-16T05:21:27.617Z,1.30
2022-09-16T05:23:53.998Z,1.70
2022-09-16T05:26:22.695Z,1.33
2022-09-16T05:28:50.749Z,1.92
2022-09-16T05:31:18.429Z,1.85
2022-09-16T05:33:47.100Z,1.15
2022-09-16T05:36:15.427Z,1.50
2022-09-16T05:38:50.610Z,1.60
2022-09-16T05:41:25.811Z,1.38
2022-09-16T05:43:52.138Z,1.55
2022-09-16T05:46:23.331Z,1.70
2022-09-16T05:48:49.918Z,1.67
2022-09-16T05:51:20.650Z,1.08
2022-09-16T05:53:48.706Z,1.65
2022-09-16T05:56:18.188Z,1.83
2022-09-16T05:58:46.028Z,1.50
2022-09-16T06:01:15.367Z,1.80
2022-09-16T06:03:43.128Z,1.65
2022-09-16T06:06:21.824Z,1.70
2022-09-16T06:08:48.154Z,1.60
2022-09-16T06:11:14.831Z,1.83
2022-09-16T06:13:42.567Z,2.00
2022-09-16T06:16:10.152Z,1.85
2022-09-16T06:18:37.102Z,1.75
2022-09-16T06:21:06.916Z,1.52
2022-09-16T06:23:34.011Z,1.60
2022-09-16T06:26:05.483Z,1.52
2022-09-16T06:28:32.319Z,1.75
2022-09-16T06:31:13.129Z,1.50
2022-09-16T06:33:41.545Z,2.20
2022-09-16T06:36:13.564Z,1.70
2022-09-16T06:38:40.314Z,2.13
2022-09-16T06:41:08.569Z,1.88
2022-09-16T06:43:35.538Z,1.60
2022-09-16T06:46:05.436Z,2.20
2022-09-16T06:48:33.828Z,1.65
2022-09-16T06:51:01.602Z,1.80
2022-09-16T06:53:28.427Z,2.00
2022-09-16T06:55:54.767Z,2.13
2022-09-16T06:58:21.246Z,1.75
2022-09-16T07:00:47.578Z,2.35
2022-09-16T07:03:13.901Z,1.92
2022-09-16T07:05:40.263Z,2.10
2022-09-16T07:08:06.570Z,1.50
2022-09-16T07:10:33.098Z,1.75
2022-09-16T07:12:59.470Z,1.50
2022-09-16T07:15:25.988Z,1.85
2022-09-16T07:17:55.398Z,2.08
2022-09-16T07:20:21.792Z,1.63
2022-09-16T07:22:50.688Z,2.13
2022-09-16T07:25:17.158Z,1.55
2022-09-16T07:27:43.552Z,1.65
2022-09-16T07:30:10.362Z,1.73
2022-09-16T07:32:38.324Z,1.92
2022-09-16T07:35:05.209Z,1.70
2022-09-16T07:37:31.638Z,1.23
2022-09-16T07:39:58.130Z,1.60
2022-09-16T07:42:24.585Z,1.50
2022-09-16T07:44:51.117Z,1.42
2022-09-16T07:47:21.507Z,1.60
2022-09-16T07:49:48.994Z,1.50
2022-09-16T07:52:16.453Z,1.48
2022-09-16T07:54:44.612Z,1.73
2022-09-16T07:57:11.046Z,1.80
2022-09-16T07:59:37.491Z,1.55
2022-09-16T08:02:03.991Z,1.95
2022-09-16T08:04:30.463Z,1.35
2022-09-16T08:06:56.826Z,1.60
2022-09-16T08:09:41.210Z,1.50
2022-09-16T08:12:10.713Z,1.85
2022-09-16T08:14:37.203Z,1.50
2022-09-16T08:17:03.768Z,1.27
2022-09-16T08:19:30.090Z,1.40
2022-09-16T08:21:56.589Z,1.60
2022-09-16T08:24:23.007Z,1.58
2022-09-16T08:26:49.466Z,1.20
2022-09-16T08:29:16.161Z,1.48
2022-09-16T08:31:42.873Z,1.40
2022-09-16T08:34:09.500Z,1.52
2022-09-16T08:36:35.877Z,1.50
2022-09-16T08:39:02.476Z,1.38
2022-09-16T08:42:00.618Z,1.25
2022-09-16T08:44:51.874Z,1.63
2022-09-16T08:47:31.142Z,1.33
2022-09-16T08:50:00.010Z,1.17
2022-09-16T08:52:34.861Z,1.08
2022-09-16T08:55:18.460Z,1.13
2022-09-16T08:57:57.324Z,1.20
2022-09-16T09:00:23.775Z,1.13
2022-09-16T09:03:07.743Z,1.20
2022-09-16T09:06:09.522Z,1.00
2022-09-16T09:09:00.611Z,0.90
2022-09-16T09:11:50.807Z,1.20
2022-09-16T09:14:35.428Z,1.67
2022-09-16T09:19:56.894Z,1.02
2022-09-16T09:22:45.872Z,1.17
2022-09-16T09:25:43.050Z,1.35
2022-09-16T09:28:31.586Z,1.02
2022-09-16T09:31:12.349Z,1.52
2022-09-16T09:34:01.669Z,1.55
2022-09-16T09:36:48.645Z,1.50
2022-09-16T09:39:28.628Z,1.20
2022-09-16T09:41:59.987Z,1.27
2022-09-16T09:44:48.084Z,1.10
2022-09-16T09:47:20.115Z,1.15
2022-09-16T09:49:50.411Z,1.10
2022-09-16T09:52:22.887Z,1.13
2022-09-16T09:54:50.970Z,1.02
2022-09-16T09:57:22.270Z,1.23
2022-09-16T10:00:17.630Z,1.48
2022-09-16T10:02:49.588Z,1.20
2022-09-16T10:05:23.292Z,0.90
2022-09-16T10:07:51.460Z,1.10
2022-09-16T10:10:22.788Z,1.38
2022-09-16T10:12:49.642Z,1.10
2022-09-16T10:15:25.131Z,1.02
2022-09-16T10:17:52.746Z,0.88
2022-09-16T10:20:32.634Z,1.10
2022-09-16T10:23:02.723Z,0.90
2022-09-16T10:25:30.761Z,0.93
2022-09-16T10:28:00.748Z,1.17
2022-09-16T10:30:51.336Z,0.93
2022-09-16T10:33:22.899Z,0.90
2022-09-16T10:35:56.799Z,1.10
2022-09-16T10:38:24.942Z,1.10
2022-09-16T10:40:55.619Z,1.00
2022-09-16T10:43:22.891Z,0.98
2022-09-16T10:45:52.213Z,1.27
2022-09-16T10:48:21.123Z,1.20
2022-09-16T10:50:55.277Z,0.90
2022-09-16T10:53:27.986Z,0.88
2022-09-16T10:55:59.278Z,1.30
2022-09-16T10:58:25.841Z,1.20
2022-09-16T11:01:10.727Z,1.10
2022-09-16T11:03:40.509Z,0.95
2022-09-16T11:06:31.530Z,1.00
2022-09-16T11:09:19.321Z,1.20
2022-09-16T11:11:54.884Z,0.80
2022-09-16T11:14:46.047Z,0.90
2022-09-16T11:17:27.519Z,0.90
2022-09-16T11:20:02.766Z,1.00
2022-09-16T11:22:38.348Z,0.73
2022-09-16T11:25:34.192Z,1.10
2022-09-16T11:28:31.274Z,1.42
2022-09-16T11:31:04.652Z,0.95
2022-09-16T11:33:48.906Z,0.63
2022-09-16T11:36:47.344Z,0.30
2022-09-16T11:39:32.772Z,0.75
2022-09-16T11:42:12.883Z,0.80
2022-09-16T11:45:10.384Z,0.80
2022-09-16T11:47:51.818Z,0.93
2022-09-16T11:50:28.964Z,1.08
2022-09-16T11:53:18.230Z,1.13
2022-09-16T11:55:56.282Z,1.27
2022-09-16T11:58:28.442Z,1.10
2022-09-16T12:00:56.695Z,0.93
2022-09-16T12:03:35.405Z,1.10
2022-09-16T12:06:08.961Z,1.25
2022-09-16T12:08:55.477Z,1.13
2022-09-16T12:11:32.871Z,1.00
2022-09-16T12:14:19.807Z,1.10
2022-09-16T12:16:53.565Z,1.77
2022-09-16T12:19:24.443Z,1.00
2022-09-16T12:22:04.334Z,1.30
2022-09-16T12:24:54.092Z,1.30
2022-09-16T12:27:39.835Z,1.23
2022-09-16T12:30:16.155Z,0.90
2022-09-16T12:32:56.850Z,1.13
2022-09-16T12:35:53.219Z,1.20
2022-09-16T12:38:21.006Z,1.00
2022-09-16T12:40:47.307Z,0.80
2022-09-16T12:43:13.538Z,1.33
2022-09-16T12:45:55.241Z,1.15
2022-09-16T12:48:44.572Z,1.15
2022-09-16T12:51:25.782Z,0.90
2022-09-16T12:54:14.010Z,0.90
2022-09-16T12:56:42.918Z,0.93
2022-09-16T12:59:22.485Z,0.95
2022-09-16T13:01:51.194Z,1.20
2022-09-16T13:04:23.955Z,0.77
2022-09-16T13:06:53.460Z,1.00
2022-09-16T13:09:20.814Z,0.80
2022-09-16T13:12:31.793Z,0.70
2022-09-16T13:14:47.049Z,0.77
2022-09-16T13:17:13.403Z,0.95
2022-09-16T13:19:39.719Z,0.93
2022-09-16T13:22:37.602Z,0.80
2022-09-16T13:25:22.979Z,0.95
2022-09-16T13:27:57.248Z,0.70
2022-09-16T13:30:35.774Z,0.98
2022-09-16T13:33:23.984Z,0.57
2022-09-16T13:36:18.967Z,0.70
2022-09-16T13:38:50.383Z,0.80
2022-09-16T13:41:37.394Z,0.90
2022-09-16T13:44:26.658Z,0.98
2022-09-16T13:46:53.071Z,0.68
2022-09-16T13:49:23.679Z,0.60
2022-09-16T13:51:51.462Z,0.80
2022-09-16T13:55:06.249Z,1.08
2022-09-16T13:57:35.008Z,0.80
2022-09-16T14:00:23.622Z,1.30
2022-09-16T14:02:52.797Z,1.05
2022-09-16T14:05:24.960Z,1.02
2022-09-16T14:07:56.977Z,0.98
2022-09-16T14:10:46.887Z,0.70
2022-09-16T14:13:16.710Z,0.93
2022-09-16T14:15:46.786Z,0.75
2022-09-16T14:18:16.216Z,0.70
2022-09-16T14:21:04.925Z,0.88
2022-09-16T14:23:32.778Z,0.73
2022-09-16T14:26:17.406Z,0.95
2022-09-16T14:31:14.707Z,1.00
2022-09-16T14:33:47.318Z,0.80
2022-09-16T14:36:19.943Z,0.80
2022-09-16T14:38:55.344Z,1.13
2022-09-16T14:41:26.894Z,0.80
2022-09-16T14:43:53.521Z,0.70
2022-09-16T14:46:20.007Z,0.88
2022-09-16T14:48:46.470Z,0.80
2022-09-16T14:51:21.951Z,0.50
2022-09-16T14:54:11.586Z,0.98
2022-09-16T14:56:39.195Z,0.70
2022-09-16T14:59:05.895Z,0.88
2022-09-16T15:01:32.280Z,0.77
2022-09-16T15:04:06.378Z,0.90
2022-09-16T15:06:38.993Z,0.70
2022-09-16T15:09:31.941Z,0.50
2022-09-16T15:11:59.697Z,0.60
2022-09-16T15:14:26.570Z,0.80
2022-09-16T15:16:57.547Z,0.90
2022-09-16T15:19:31.326Z,0.50
2022-09-16T15:21:57.801Z,0.52
2022-09-16T15:24:28.746Z,0.80
2022-09-16T15:26:55.575Z,0.60
2022-09-16T15:29:24.615Z,0.65
2022-09-16T15:31:51.378Z,0.60
2022-09-16T15:34:20.723Z,0.70
2022-09-16T15:36:57.755Z,0.68
2022-09-16T15:39:39.735Z,1.10
2022-09-16T15:42:14.342Z,0.80
2022-09-16T15:44:50.055Z,0.52
2022-09-16T15:47:28.992Z,0.65
2022-09-16T15:50:16.661Z,0.60
2022-09-16T15:52:55.337Z,0.70
2022-09-16T15:55:41.757Z,0.90
2022-09-16T15:58:25.490Z,0.40
2022-09-16T16:01:20.987Z,1.10
2022-09-16T16:03:56.893Z,0.73
2022-09-16T16:06:52.713Z,0.85
2022-09-16T16:09:28.392Z,0.60
2022-09-16T16:11:58.059Z,0.70
2022-09-16T16:14:27.495Z,0.70
2022-09-16T16:17:12.264Z,0.60
2022-09-16T16:19:41.491Z,0.88
2022-09-16T16:22:08.231Z,0.60
2022-09-16T16:24:34.700Z,0.73
2022-09-16T16:27:01.101Z,0.82
2022-09-16T16:29:27.533Z,0.70
2022-09-16T16:32:00.991Z,0.73
2022-09-16T16:34:27.518Z,0.87
2022-09-16T16:36:54.838Z,0.60
2022-09-16T16:39:22.541Z,0.70
2022-09-16T16:41:48.935Z,0.77
2022-09-16T16:44:15.695Z,0.55
2022-09-16T16:46:42.063Z,0.57
2022-09-16T16:49:08.389Z,0.70
2022-09-16T16:51:34.750Z,0.50
2022-09-16T16:54:01.330Z,0.73
2022-09-16T16:56:27.629Z,0.63
2022-09-16T16:58:54.124Z,0.90
2022-09-16T17:01:20.652Z,0.77
2022-09-16T17:03:50.662Z,0.73
2022-09-16T17:06:17.742Z,0.80
2022-09-16T17:08:44.067Z,0.82
2022-09-16T17:11:12.422Z,0.50
2022-09-16T17:13:40.712Z,0.80
2022-09-16T17:16:08.396Z,0.70
2022-09-16T17:18:36.128Z,0.60
2022-09-16T17:21:13.705Z,0.63
2022-09-16T17:23:40.146Z,0.68
2022-09-16T17:26:09.059Z,0.60
2022-09-16T17:28:40.083Z,0.68
2022-09-16T17:31:16.147Z,0.68
2022-09-16T17:33:43.690Z,0.50
2022-09-16T17:36:12.435Z,0.80
2022-09-16T17:38:38.922Z,0.70
2022-09-16T17:41:10.642Z,0.70
2022-09-16T17:43:37.805Z,0.77
2022-09-16T17:46:06.129Z,0.90
2022-09-16T17:48:32.958Z,0.77
2022-09-16T17:50:59.595Z,0.90
2022-09-16T17:53:26.255Z,0.95
2022-09-16T17:55:52.661Z,1.00
2022-09-16T17:58:19.113Z,1.23
2022-09-16T18:00:45.406Z,1.02
2022-09-16T18:03:12.440Z,0.90
2022-09-16T18:05:39.343Z,1.10
2022-09-16T18:08:06.242Z,0.77
2022-09-16T18:10:32.614Z,0.85
2022-09-16T18:12:58.961Z,0.90
2022-09-16T18:15:25.537Z,0.93
2022-09-16T18:17:51.847Z,0.73
2022-09-16T18:20:18.166Z,0.90
2022-09-16T18:22:44.474Z,0.85
2022-09-16T18:25:11.582Z,1.10
2022-09-16T18:27:42.017Z,1.08
2022-09-16T18:30:10.947Z,0.90
2022-09-16T18:32:37.258Z,1.13
2022-09-16T18:35:03.821Z,0.70
2022-09-16T18:37:30.150Z,0.77
2022-09-16T18:39:56.498Z,0.73
2022-09-16T18:42:22.913Z,0.82
2022-09-16T18:44:49.485Z,0.88
2022-09-16T18:47:15.829Z,0.70
2022-09-16T18:49:42.166Z,0.90
2022-09-16T18:52:08.491Z,0.98
2022-09-16T18:54:35.111Z,0.80
2022-09-16T18:57:01.847Z,1.45
2022-09-16T18:59:31.352Z,1.17
2022-09-16T19:01:59.548Z,0.80
2022-09-16T19:04:28.829Z,1.00
2022-09-16T19:06:59.006Z,0.88
2022-09-16T19:09:25.421Z,0.70
2022-09-16T19:11:52.813Z,0.98
2022-09-16T19:14:22.211Z,1.02
2022-09-16T19:16:48.534Z,0.63
2022-09-16T19:19:15.202Z,0.98
2022-09-16T19:21:42.786Z,1.00
2022-09-16T19:24:17.407Z,0.95
2022-09-16T19:26:45.884Z,0.90
2022-09-16T19:29:13.664Z,0.90
2022-09-16T19:31:41.362Z,1.08
2022-09-16T19:34:07.986Z,0.80
2022-09-16T19:36:35.540Z,1.05
2022-09-16T19:39:03.578Z,1.33
2022-09-16T19:41:31.624Z,1.00
2022-09-16T19:44:02.382Z,1.20
2022-09-16T19:46:29.653Z,1.10
2022-09-16T19:48:56.430Z,1.08
2022-09-16T19:51:24.193Z,1.27
2022-09-16T19:53:51.562Z,1.33
2022-09-16T19:56:23.601Z,1.30
2022-09-16T19:58:51.011Z,1.10
2022-09-16T20:01:20.377Z,1.52
2022-09-16T20:03:49.154Z,1.30
2022-09-16T20:06:17.796Z,1.40
2022-09-16T20:08:45.379Z,1.15
2022-09-16T20:11:19.291Z,1.20
2022-09-16T20:13:50.003Z,1.27
2022-09-16T20:16:17.496Z,0.90
2022-09-16T20:18:44.178Z,1.20
2022-09-16T20:21:12.723Z,1.10
2022-09-16T20:23:39.590Z,1.20
2022-09-16T20:26:08.369Z,0.93
2022-09-16T20:28:41.910Z,1.02
2022-09-16T20:31:12.718Z,1.20
2022-09-16T20:33:39.538Z,1.13
2022-09-16T20:36:11.574Z,1.10
2022-09-16T20:38:39.221Z,1.00
2022-09-16T20:41:10.915Z,1.10
2022-09-16T20:43:37.564Z,1.17
2022-09-16T20:46:08.804Z,1.35
2022-09-16T20:48:35.223Z,0.88
2022-09-16T20:51:23.959Z,0.95
2022-09-16T20:53:52.327Z,1.05
2022-09-16T20:56:18.854Z,1.23
2022-09-16T20:58:45.193Z,1.20
2022-09-16T21:01:16.746Z,1.20
2022-09-16T21:03:44.414Z,0.80
2022-09-16T21:06:15.013Z,1.00
2022-09-16T21:08:42.090Z,1.10
2022-09-16T21:11:13.771Z,0.98
2022-09-16T21:13:41.289Z,1.00
2022-09-16T21:16:09.099Z,1.02
2022-09-16T21:18:35.456Z,0.80
2022-09-16T21:21:04.421Z,0.88
2022-09-16T21:23:32.273Z,1.20
2022-09-16T21:26:06.669Z,1.17
2022-09-16T21:28:34.300Z,1.45
2022-09-16T21:31:02.301Z,1.52
2022-09-16T21:33:30.407Z,1.17
2022-09-16T21:35:57.086Z,1.00
2022-09-16T21:38:23.548Z,1.17
2022-09-16T21:41:06.855Z,1.17
2022-09-16T21:43:38.767Z,1.25
2022-09-16T21:46:05.592Z,0.95
2022-09-16T21:48:32.979Z,1.23
2022-09-16T21:51:05.414Z,1.40
2022-09-16T21:53:32.890Z,1.05
2022-09-16T21:56:03.383Z,1.25
2022-09-16T21:58:29.714Z,1.13
2022-09-16T22:01:17.463Z,0.85
2022-09-16T22:03:45.805Z,1.05
2022-09-16T22:06:14.099Z,1.00
2022-09-16T22:08:48.076Z,0.98
2022-09-16T22:11:16.881Z,1.38
2022-09-16T22:13:43.316Z,1.60
2022-09-16T22:16:14.633Z,1.00
2022-09-16T22:18:41.044Z,1.25
2022-09-16T22:21:09.621Z,1.20
2022-09-16T22:23:37.536Z,1.02
2022-09-16T22:26:05.850Z,1.10
2022-09-16T22:28:32.934Z,1.08
2022-09-16T22:31:26.969Z,1.35
2022-09-16T22:33:54.459Z,1.30
2022-09-16T22:36:23.601Z,1.40
2022-09-16T22:38:54.816Z,1.73
2022-09-16T22:41:21.951Z,1.25
2022-09-16T22:43:49.631Z,1.50
2022-09-16T22:46:18.959Z,1.55
2022-09-16T22:48:45.755Z,1.48
2022-09-16T22:51:13.802Z,1.77
2022-09-16T22:53:41.060Z,1.70
2022-09-16T22:56:10.280Z,1.38
2022-09-16T22:58:36.918Z,1.95
2022-09-16T23:01:06.029Z,1.23
2022-09-16T23:03:32.589Z,1.73
2022-09-16T23:06:01.336Z,1.55
2022-09-16T23:08:28.766Z,1.40
2022-09-16T23:10:55.680Z,1.58
2022-09-16T23:13:23.215Z,1.77
2022-09-16T23:15:53.633Z,1.60
2022-09-16T23:18:23.222Z,1.77
2022-09-16T23:20:57.235Z,1.20
2022-09-16T23:23:23.648Z,1.58
2022-09-16T23:25:49.979Z,1.70
2022-09-16T23:28:16.550Z,2.10
2022-09-16T23:30:42.920Z,1.77
2022-09-16T23:33:09.243Z,2.03
2022-09-16T23:35:35.685Z,1.83
2022-09-16T23:38:02.009Z,1.60
2022-09-16T23:40:31.052Z,1.80
2022-09-16T23:42:57.396Z,1.40
2022-09-16T23:45:23.706Z,1.63
2022-09-16T23:47:50.053Z,1.60
2022-09-16T23:50:16.479Z,1.67
2022-09-16T23:52:42.853Z,1.40
2022-09-16T23:55:09.328Z,1.70
2022-09-16T23:57:35.672Z,1.40
